Overview Statistics Trail Chart Weather Telemetry Raw packets
 

This is the latest recevied weather packets stored in our database for station/object IU5JAE-13. If no packets are shown the sender has not sent any weather packets the latest 10 day(s).

<< 7 8 9 10 11 12 13 >>
Time Temp. Humidity Pressure Rain* Wind** Luminosity Snow
1788584117 18.33° C 65% 1019.9 hPa 0 mm - 5 W/m² -
1788583534 18.89° C 65% 1019.8 hPa 0 mm - 2 W/m² -
1788582932 18.33° C 65% 1019.8 hPa 0 mm - 0 W/m² -
1788582329 18.33° C 65% 1019.9 hPa 0 mm - 0 W/m² -
1788581727 18.89° C 65% 1020 hPa 0 mm - 0 W/m² -
1788581125 18.89° C 64% 1019.9 hPa 0 mm - 0 W/m² -
1788580522 18.89° C 66% 1019.9 hPa 0 mm - 0 W/m² -
1788579920 18.89° C 65% 1019.8 hPa 0 mm - 0 W/m² -
1788579317 18.89° C 66% 1019.9 hPa 0 mm - 0 W/m² -
1788578735 18.89° C 66% 1020 hPa 0 mm - 0 W/m² -
1788578133 19.44° C 65% 1020 hPa 0 mm - 0 W/m² -
1788577530 18.89° C 65% 1020.1 hPa 0 mm - 0 W/m² -
1788576928 18.89° C 65% 1020 hPa 0 mm - 0 W/m² -
1788576325 18.89° C 66% 1020 hPa 0 mm - 0 W/m² -
1788575723 19.44° C 66% 1020 hPa 0 mm - 0 W/m² -
1788575121 19.44° C 67% 1020.1 hPa 0 mm - 0 W/m² -
1788574518 18.89° C 68% 1020 hPa 0 mm - 0 W/m² -
1788573916 19.44° C 66% 1020.1 hPa 0 mm - 0 W/m² -
1788573333 19.44° C 66% 1020.1 hPa 0 mm - 0 W/m² -
1788572731 20° C 66% 1020.1 hPa 0 mm - 0 W/m² -
1788572129 19.44° C 68% 1020.2 hPa 0 mm - 0 W/m² -
1788571526 19.44° C 69% 1020.2 hPa 0 mm - 0 W/m² -
1788570924 20° C 66% 1020.3 hPa 0 mm - 0 W/m² -
1788570321 20.56° C 64% 1020.3 hPa 0 mm - 0 W/m² -
1788569719 20° C 65% 1020.1 hPa 0 mm - 0 W/m² -

* Rain latest hour (hover to see other rain measurements)
** Current wind speed in m/s (hover to see current wind gust speed)